Deloit, Iowa
Current Conditions -  °F | °C
As of 9:15 AM on Friday 19 Dec 2014 (Local Time) from KDNS Reporting Station
Haze Haze  
Wind Chill: 23°   Ceiling: 700
Heat Index: 30°   Visibility: 3mi
Dew Point: 30°   Wind: 8mph
Humidity: 100%   Direction: 170°S
Pressure: 30.2"   Gusts: NA
Location:  42.1°N, 95.32°W
Report Text: KDNS 191515Z AUTO 17007KT 3SM BR BKN007 OVC029 M01/M01 A3020 RMK AO2
Loading
Personal Weather Stations






























Interactive Weather Map New forecast layout! Learn more

10-Day Weather Forecast

Advertisements
Track Severe Weather on mobile